Time;durP1;ratioP1;P1;durP2;ratioP2;P2;SDS_P1;SDS_P2;PMS_P1;PMS_P2;Temp;Humidity;BMP_temperature;BMP_pressure;BME280_temperature;BME280_humidity;BME280_pressure;Samples;Min_cycle;Max_cycle;Signal;HPM_P1;HPM_P2
2021/08/11 00:00:21;;;;;;;15.35;7.43;;;;;;;;;;5010947;28;20557;-87
2021/08/11 00:02:46;;;;;;;21.48;7.60;;;;;;;;;;5010642;28;20080;-87
2021/08/11 00:05:11;;;;;;;14.73;6.65;;;;;;;;;;5012054;28;20010;-87
2021/08/11 00:07:37;;;;;;;9.10;5.78;;;;;;;;;;5011315;28;20014;-87
2021/08/11 00:10:02;;;;;;;8.48;4.55;;;;;;;;;;5012451;28;20017;-87
2021/08/11 00:12:27;;;;;;;10.48;4.82;;;;;;;;;;5010688;28;20525;-87
2021/08/11 00:14:53;;;;;;;12.73;5.30;;;;;;;;;;5010982;28;20029;-88
2021/08/11 00:17:18;;;;;;;8.05;4.45;;;;;;;;;;5009888;28;20521;-87
2021/08/11 00:19:43;;;;;;;10.82;4.80;;;;;;;;;;5010424;28;20025;-87
2021/08/11 00:22:08;;;;;;;7.35;4.57;;;;;;;;;;5010401;28;20052;-87
2021/08/11 00:24:34;;;;;;;8.35;4.78;;;;;;;;;;5010550;28;20018;-87
2021/08/11 00:26:59;;;;;;;9.43;5.18;;;;;;;;;;5009817;28;20021;-88
2021/08/11 00:29:24;;;;;;;12.48;6.28;;;;;;;;;;5010185;28;20032;-87
2021/08/11 00:31:50;;;;;;;8.30;4.60;;;;;;;;;;5009961;28;20017;-87
2021/08/11 00:34:15;;;;;;;12.85;4.95;;;;;;;;;;5009641;28;20021;-88
2021/08/11 00:36:40;;;;;;;8.32;5.10;;;;;;;;;;5009961;28;20025;-88
2021/08/11 00:39:05;;;;;;;7.97;5.13;;;;;;;;;;5043352;28;20033;-87
2021/08/11 00:41:31;;;;;;;13.00;4.88;;;;;;;;;;5010419;28;20138;-88
2021/08/11 00:43:56;;;;;;;16.13;4.35;;;;;;;;;;5010281;28;20072;-87
2021/08/11 00:46:21;;;;;;;11.75;4.85;;;;;;;;;;5009918;28;20030;-87
2021/08/11 00:48:46;;;;;;;7.97;4.43;;;;;;;;;;5008787;28;20009;-87
2021/08/11 00:51:13;;;;;;;11.60;4.63;;;;;;;;;;5009889;28;20120;-87
2021/08/11 00:53:39;;;;;;;10.63;5.63;;;;;;;;;;5008938;28;20022;-87
2021/08/11 00:56:04;;;;;;;10.52;5.25;;;;;;;;;;5011217;28;20017;-88
2021/08/11 00:58:30;;;;;;;13.02;5.10;;;;;;;;;;5011026;28;20021;-87
2021/08/11 01:00:56;;;;;;;13.07;4.20;;;;;;;;;;5010168;28;20060;-88
2021/08/11 01:03:22;;;;;;;10.05;5.13;;;;;;;;;;5007903;28;20449;-87
2021/08/11 01:05:48;;;;;;;8.73;4.80;;;;;;;;;;5024185;28;20044;-87
2021/08/11 01:08:13;;;;;;;9.32;4.88;;;;;;;;;;5028682;28;20033;-87
2021/08/11 01:10:40;;;;;;;10.70;4.32;;;;;;;;;;5029433;28;20021;-86
2021/08/11 01:13:05;;;;;;;13.35;4.07;;;;;;;;;;5029725;28;20028;-87
2021/08/11 01:15:30;;;;;;;9.07;3.85;;;;;;;;;;5024515;28;20109;-87
2021/08/11 01:17:56;;;;;;;10.23;3.20;;;;;;;;;;5053271;28;20449;-87
2021/08/11 01:20:21;;;;;;;12.30;3.95;;;;;;;;;;5017725;28;20953;-87
2021/08/11 01:23:05;;;;;;;45.90;5.18;;;;;;;;;;5028938;28;20034;-87
2021/08/11 01:25:40;;;;;;;12.48;4.97;;;;;;;;;;5030752;28;20017;-87
2021/08/11 01:28:24;;;;;;;8.10;3.83;;;;;;;;;;5029069;28;20064;-88
2021/08/11 01:30:49;;;;;;;6.43;4.07;;;;;;;;;;5029074;28;20027;-87
2021/08/11 01:33:24;;;;;;;10.85;3.83;;;;;;;;;;5028941;28;20029;-87
2021/08/11 01:36:12;;;;;;;12.27;4.53;;;;;;;;;;5028934;28;20026;-88
2021/08/11 01:38:39;;;;;;;9.95;4.30;;;;;;;;;;5020582;28;20035;-87
2021/08/11 01:41:06;;;;;;;7.30;4.28;;;;;;;;;;5029331;28;20017;-87
2021/08/11 01:43:36;;;;;;;7.82;4.07;;;;;;;;;;5029118;28;20104;-87
2021/08/11 01:46:01;;;;;;;11.35;4.32;;;;;;;;;;5028874;28;20099;-87
2021/08/11 01:48:27;;;;;;;6.35;4.10;;;;;;;;;;5028031;28;20400;-87
2021/08/11 01:50:53;;;;;;;9.57;4.63;;;;;;;;;;5027475;28;20534;-88
2021/08/11 01:53:20;;;;;;;6.90;4.18;;;;;;;;;;5016782;28;20026;-87
2021/08/11 01:55:49;;;;;;;12.95;4.28;;;;;;;;;;5030515;28;20029;-87
2021/08/11 01:58:15;;;;;;;6.18;3.60;;;;;;;;;;5028618;28;20126;-88
2021/08/11 02:00:40;;;;;;;11.13;4.18;;;;;;;;;;5029370;28;20432;-88
2021/08/11 02:03:05;;;;;;;9.95;4.20;;;;;;;;;;5029981;28;20009;-88
2021/08/11 02:05:31;;;;;;;14.70;4.97;;;;;;;;;;5022034;28;20048;-87
2021/08/11 02:07:57;;;;;;;19.65;5.00;;;;;;;;;;5027866;28;20026;-87
2021/08/11 02:10:22;;;;;;;14.63;4.90;;;;;;;;;;5027823;28;20112;-87
2021/08/11 02:12:47;;;;;;;11.02;5.35;;;;;;;;;;5032417;28;20033;-87
2021/08/11 02:15:13;;;;;;;11.90;5.03;;;;;;;;;;5032501;28;20017;-87
2021/08/11 02:17:38;;;;;;;14.70;4.95;;;;;;;;;;5031833;28;20017;-87
2021/08/11 02:20:08;;;;;;;10.85;4.57;;;;;;;;;;5032479;28;20071;-87
2021/08/11 02:22:33;;;;;;;11.07;4.93;;;;;;;;;;5032214;28;20128;-87
2021/08/11 02:24:59;;;;;;;8.35;4.60;;;;;;;;;;5033391;28;20182;-87
2021/08/11 02:27:29;;;;;;;8.98;4.20;;;;;;;;;;5031908;28;20083;-88
2021/08/11 02:30:13;;;;;;;9.05;4.95;;;;;;;;;;5033706;28;20142;-88
2021/08/11 02:32:38;;;;;;;7.15;3.92;;;;;;;;;;5016894;28;20502;-87
2021/08/11 02:35:13;;;;;;;6.78;4.30;;;;;;;;;;5026222;28;20021;-87
2021/08/11 02:37:58;;;;;;;12.38;4.07;;;;;;;;;;5031592;28;20468;-87
2021/08/11 02:40:26;;;;;;;9.60;5.18;;;;;;;;;;5031837;28;20026;-87
2021/08/11 02:42:57;;;;;;;7.25;4.32;;;;;;;;;;5031540;28;20029;-88
2021/08/11 02:45:24;;;;;;;11.02;4.07;;;;;;;;;;5031344;28;20381;-88
2021/08/11 02:47:50;;;;;;;6.97;4.38;;;;;;;;;;5031196;28;20568;-88
2021/08/11 02:50:16;;;;;;;8.15;4.88;;;;;;;;;;5032291;28;20108;-88
2021/08/11 02:52:43;;;;;;;8.50;4.55;;;;;;;;;;5031956;28;20025;-88
2021/08/11 02:55:08;;;;;;;10.38;5.00;;;;;;;;;;5033390;28;20026;-88
2021/08/11 02:57:34;;;;;;;20.80;6.03;;;;;;;;;;5031309;28;20021;-87
2021/08/11 03:00:00;;;;;;;16.60;6.03;;;;;;;;;;5027181;28;20024;-88
2021/08/11 03:02:25;;;;;;;14.18;5.80;;;;;;;;;;5032417;28;20469;-87
2021/08/11 03:04:50;;;;;;;19.52;6.40;;;;;;;;;;5031560;28;20025;-87
2021/08/11 03:07:16;;;;;;;25.85;6.07;;;;;;;;;;5031299;28;20041;-88
2021/08/11 03:09:42;;;;;;;24.45;7.45;;;;;;;;;;5018012;28;20032;-88
2021/08/11 03:12:08;;;;;;;30.15;7.03;;;;;;;;;;5033177;28;20025;-88
2021/08/11 03:14:34;;;;;;;26.85;7.00;;;;;;;;;;5031767;28;20025;-88
2021/08/11 03:16:59;;;;;;;15.85;6.68;;;;;;;;;;5030093;28;20029;-88
2021/08/11 03:19:25;;;;;;;22.02;8.02;;;;;;;;;;5030613;28;20025;-88
2021/08/11 03:21:50;;;;;;;26.98;7.35;;;;;;;;;;5031543;28;20029;-87
2021/08/11 03:24:17;;;;;;;27.92;7.95;;;;;;;;;;5031206;28;20292;-87
2021/08/11 03:26:43;;;;;;;26.42;7.72;;;;;;;;;;5031989;28;20473;-88
2021/08/11 03:29:08;;;;;;;21.15;7.95;;;;;;;;;;5032390;28;20024;-88
2021/08/11 03:31:33;;;;;;;19.45;8.15;;;;;;;;;;5031221;28;20033;-87
2021/08/11 03:33:58;;;;;;;26.13;8.00;;;;;;;;;;5030253;28;20021;-87
2021/08/11 03:36:23;;;;;;;19.63;7.57;;;;;;;;;;5030594;28;20029;-88
2021/08/11 03:38:49;;;;;;;25.65;7.50;;;;;;;;;;5030515;28;20029;-88
2021/08/11 03:41:14;;;;;;;30.77;8.23;;;;;;;;;;5031101;28;20021;-87
2021/08/11 03:43:39;;;;;;;24.60;8.00;;;;;;;;;;5030905;28;20365;-87
2021/08/11 03:46:04;;;;;;;24.90;9.55;;;;;;;;;;5030877;28;20100;-88
2021/08/11 03:48:30;;;;;;;21.25;8.73;;;;;;;;;;5017428;28;20164;-87
2021/08/11 03:50:55;;;;;;;24.42;9.23;;;;;;;;;;5029515;28;20063;-88
2021/08/11 03:53:20;;;;;;;39.15;11.98;;;;;;;;;;5032520;28;20045;-87
2021/08/11 03:55:45;;;;;;;29.27;10.77;;;;;;;;;;5030582;28;20433;-87
2021/08/11 03:58:10;;;;;;;35.13;10.95;;;;;;;;;;5030211;28;20036;-88
2021/08/11 04:00:36;;;;;;;36.95;13.40;;;;;;;;;;5030496;28;20021;-88
2021/08/11 04:03:01;;;;;;;45.63;13.02;;;;;;;;;;5029538;28;20024;-87
2021/08/11 04:05:26;;;;;;;41.28;13.98;;;;;;;;;;5030553;28;20104;-88
2021/08/11 04:07:51;;;;;;;42.55;13.77;;;;;;;;;;5031481;28;20071;-88
2021/08/11 04:10:17;;;;;;;49.63;15.05;;;;;;;;;;5032129;28;20536;-88
2021/08/11 04:12:42;;;;;;;52.80;14.93;;;;;;;;;;5030375;28;20013;-88
2021/08/11 04:15:07;;;;;;;57.60;15.13;;;;;;;;;;5030251;28;20020;-88
2021/08/11 04:17:33;;;;;;;58.70;15.20;;;;;;;;;;5029022;28;20045;-87
2021/08/11 04:19:58;;;;;;;38.28;14.68;;;;;;;;;;5031198;28;20372;-88
2021/08/11 04:22:23;;;;;;;46.28;15.02;;;;;;;;;;5030177;28;20506;-88
2021/08/11 04:24:48;;;;;;;38.03;13.75;;;;;;;;;;5030377;28;20089;-88
2021/08/11 04:27:13;;;;;;;35.15;14.80;;;;;;;;;;5015759;28;20128;-88
2021/08/11 04:29:39;;;;;;;46.45;14.77;;;;;;;;;;5029933;28;20490;-88
2021/08/11 04:32:04;;;;;;;46.53;14.18;;;;;;;;;;5030855;28;20087;-88
2021/08/11 04:34:29;;;;;;;50.45;14.55;;;;;;;;;;5029972;28;20029;-87
2021/08/11 04:36:55;;;;;;;48.70;14.93;;;;;;;;;;5029514;28;20036;-87
2021/08/11 04:39:20;;;;;;;37.65;13.60;;;;;;;;;;5027845;28;20022;-88
2021/08/11 04:41:45;;;;;;;38.22;13.73;;;;;;;;;;5030244;28;20236;-87
2021/08/11 04:44:11;;;;;;;44.90;14.63;;;;;;;;;;5029660;28;20018;-87
2021/08/11 04:46:37;;;;;;;38.17;14.00;;;;;;;;;;5030789;28;20036;-87
2021/08/11 04:49:02;;;;;;;37.33;14.10;;;;;;;;;;5029257;28;20021;-88
2021/08/11 04:51:28;;;;;;;40.05;14.10;;;;;;;;;;5029874;28;20021;-87
2021/08/11 04:53:53;;;;;;;43.00;14.55;;;;;;;;;;5029008;28;20111;-87
2021/08/11 04:56:19;;;;;;;41.50;13.73;;;;;;;;;;5028858;28;20114;-87
2021/08/11 04:58:44;;;;;;;37.40;12.30;;;;;;;;;;5029673;28;20474;-88
2021/08/11 05:01:09;;;;;;;45.88;14.63;;;;;;;;;;5029752;28;20025;-87
2021/08/11 05:03:35;;;;;;;36.67;13.88;;;;;;;;;;5017973;28;20017;-88
2021/08/11 05:06:00;;;;;;;44.17;14.05;;;;;;;;;;5026140;28;20097;-87
2021/08/11 05:08:26;;;;;;;39.20;13.25;;;;;;;;;;5029340;28;20049;-88
2021/08/11 05:10:51;;;;;;;37.47;13.70;;;;;;;;;;5029765;28;20441;-88
2021/08/11 05:13:16;;;;;;;43.15;12.82;;;;;;;;;;5030626;28;20030;-87
2021/08/11 05:15:41;;;;;;;50.63;13.27;;;;;;;;;;5029577;28;20026;-87
2021/08/11 05:18:07;;;;;;;44.50;13.23;;;;;;;;;;5028048;28;20432;-87
2021/08/11 05:20:32;;;;;;;44.22;14.55;;;;;;;;;;5029359;28;20087;-87
2021/08/11 05:22:57;;;;;;;62.20;14.55;;;;;;;;;;5029084;28;20017;-88
2021/08/11 05:25:23;;;;;;;48.90;14.18;;;;;;;;;;5030561;28;20022;-87
2021/08/11 05:27:48;;;;;;;54.17;15.55;;;;;;;;;;5029071;28;20017;-88
2021/08/11 05:30:13;;;;;;;41.97;13.30;;;;;;;;;;5016924;28;20046;-88
2021/08/11 05:32:38;;;;;;;42.97;13.88;;;;;;;;;;5030146;28;20063;-88
2021/08/11 05:35:04;;;;;;;47.20;13.43;;;;;;;;;;5029292;28;20334;-86
2021/08/11 05:37:29;;;;;;;42.88;14.60;;;;;;;;;;5015360;28;20451;-88
2021/08/11 05:39:54;;;;;;;53.38;14.00;;;;;;;;;;5031227;28;20033;-87
2021/08/11 05:42:20;;;;;;;45.70;15.05;;;;;;;;;;5033111;28;20017;-87
2021/08/11 05:44:45;;;;;;;41.90;14.27;;;;;;;;;;5033385;28;20017;-87
2021/08/11 05:47:11;;;;;;;46.33;15.70;;;;;;;;;;5018205;28;20116;-88
2021/08/11 05:49:36;;;;;;;52.65;15.00;;;;;;;;;;5033088;28;20025;-87
2021/08/11 05:52:02;;;;;;;40.03;14.57;;;;;;;;;;5034183;28;20117;-87
2021/08/11 05:54:27;;;;;;;51.38;14.70;;;;;;;;;;5032878;28;20036;-87
2021/08/11 05:56:53;;;;;;;46.03;15.05;;;;;;;;;;5032636;28;20116;-87
2021/08/11 05:59:18;;;;;;;44.25;13.88;;;;;;;;;;5034275;28;20063;-87
2021/08/11 06:01:43;;;;;;;46.72;15.30;;;;;;;;;;5032985;28;20025;-88
2021/08/11 06:04:08;;;;;;;46.88;14.52;;;;;;;;;;5032364;28;20057;-88
2021/08/11 06:06:34;;;;;;;42.20;14.35;;;;;;;;;;5032579;28;20116;-88
2021/08/11 06:08:59;;;;;;;39.58;14.20;;;;;;;;;;5033501;28;20021;-87
2021/08/11 06:11:24;;;;;;;41.33;14.40;;;;;;;;;;5027212;28;20029;-87
2021/08/11 06:13:49;;;;;;;40.00;14.40;;;;;;;;;;5021727;28;20045;-87
2021/08/11 06:16:15;;;;;;;32.72;13.18;;;;;;;;;;5028614;28;20029;-87
2021/08/11 06:18:40;;;;;;;35.95;12.98;;;;;;;;;;5030712;28;20079;-87
2021/08/11 06:21:05;;;;;;;31.40;12.43;;;;;;;;;;5024280;28;20112;-87
2021/08/11 06:23:30;;;;;;;28.95;13.45;;;;;;;;;;5030011;28;20105;-87
2021/08/11 06:25:56;;;;;;;35.90;14.85;;;;;;;;;;5013614;28;20025;-87
2021/08/11 06:28:21;;;;;;;31.98;12.68;;;;;;;;;;5016361;28;20088;-87
2021/08/11 06:30:46;;;;;;;32.65;13.05;;;;;;;;;;5020539;28;20416;-88
2021/08/11 06:33:11;;;;;;;28.48;12.52;;;;;;;;;;5033376;28;20029;-87
2021/08/11 06:35:37;;;;;;;29.05;12.73;;;;;;;;;;5028203;28;20385;-87
2021/08/11 06:38:02;;;;;;;28.02;12.20;;;;;;;;;;5013923;28;20030;-86
2021/08/11 06:40:28;;;;;;;32.50;13.55;;;;;;;;;;5029655;28;20010;-87
2021/08/11 06:42:53;;;;;;;26.60;11.82;;;;;;;;;;5034557;28;20019;-87
2021/08/11 06:45:18;;;;;;;28.98;13.10;;;;;;;;;;5017064;28;20121;-86
2021/08/11 06:47:44;;;;;;;29.83;12.45;;;;;;;;;;5032727;28;20018;-87
2021/08/11 06:50:11;;;;;;;25.48;11.50;;;;;;;;;;5020673;28;20122;-87
2021/08/11 06:52:36;;;;;;;24.38;12.05;;;;;;;;;;5016834;28;20090;-87
2021/08/11 06:55:03;;;;;;;26.55;11.52;;;;;;;;;;5015985;28;20767;-87
2021/08/11 06:57:28;;;;;;;25.23;10.27;;;;;;;;;;5048570;28;20124;-87
2021/08/11 06:59:54;;;;;;;18.95;9.68;;;;;;;;;;5028024;28;20029;-87
2021/08/11 07:02:19;;;;;;;18.17;9.20;;;;;;;;;;5032187;28;20031;-86
2021/08/11 07:04:44;;;;;;;15.82;9.07;;;;;;;;;;5019924;28;20438;-87
2021/08/11 07:07:10;;;;;;;19.98;8.88;;;;;;;;;;5025705;28;20036;-87
2021/08/11 07:09:35;;;;;;;21.02;8.55;;;;;;;;;;5027879;28;20017;-87
2021/08/11 07:12:02;;;;;;;18.33;8.43;;;;;;;;;;5023249;28;20037;-88
2021/08/11 07:14:27;;;;;;;11.30;6.95;;;;;;;;;;5013537;28;20097;-88
2021/08/11 07:16:52;;;;;;;13.85;7.40;;;;;;;;;;5024616;28;20404;-88
2021/08/11 07:19:18;;;;;;;12.60;7.13;;;;;;;;;;5014657;28;20032;-88
2021/08/11 07:21:43;;;;;;;13.23;7.53;;;;;;;;;;5016078;28;20033;-88
2021/08/11 07:24:08;;;;;;;14.45;7.20;;;;;;;;;;5023375;28;20022;-88
2021/08/11 07:26:33;;;;;;;14.02;6.95;;;;;;;;;;5015703;28;20103;-88
2021/08/11 07:28:59;;;;;;;10.88;5.22;;;;;;;;;;5031034;28;20457;-88
2021/08/11 07:31:24;;;;;;;13.68;5.65;;;;;;;;;;5031073;28;20460;-88
2021/08/11 07:33:49;;;;;;;10.23;5.90;;;;;;;;;;5030509;28;20048;-88
2021/08/11 07:36:14;;;;;;;11.20;5.93;;;;;;;;;;5030825;28;20071;-88
2021/08/11 07:38:39;;;;;;;11.32;5.20;;;;;;;;;;5031058;28;20485;-89
2021/08/11 07:41:05;;;;;;;15.30;5.75;;;;;;;;;;5031097;28;20044;-88
2021/08/11 07:43:30;;;;;;;9.85;5.28;;;;;;;;;;5031028;28;20029;-88
2021/08/11 07:45:55;;;;;;;9.25;5.03;;;;;;;;;;5024644;28;20028;-88
2021/08/11 07:48:20;;;;;;;8.07;5.03;;;;;;;;;;5023501;28;20670;-88
2021/08/11 07:50:45;;;;;;;9.15;4.80;;;;;;;;;;5030632;28;20436;-88
2021/08/11 07:53:11;;;;;;;17.23;7.03;;;;;;;;;;5030916;28;20035;-88
2021/08/11 07:55:36;;;;;;;11.57;6.22;;;;;;;;;;5030554;28;20393;-88
2021/08/11 07:58:01;;;;;;;12.60;4.82;;;;;;;;;;5028789;28;20025;-89
2021/08/11 08:00:27;;;;;;;11.70;5.07;;;;;;;;;;5057315;28;20025;-89
2021/08/11 08:02:53;;;;;;;8.10;4.10;;;;;;;;;;5029732;28;20010;-88
2021/08/11 08:05:18;;;;;;;5.85;3.33;;;;;;;;;;5019726;28;20022;-87
2021/08/11 08:07:43;;;;;;;7.70;3.65;;;;;;;;;;5027283;28;20484;-89
2021/08/11 08:10:09;;;;;;;6.45;3.50;;;;;;;;;;5030930;28;20389;-89
2021/08/11 08:12:34;;;;;;;6.28;3.08;;;;;;;;;;5030445;28;20164;-89
2021/08/11 08:14:59;;;;;;;6.57;3.80;;;;;;;;;;5030142;28;20496;-88
2021/08/11 08:17:25;;;;;;;12.77;3.83;;;;;;;;;;5030702;28;20455;-89
2021/08/11 08:19:50;;;;;;;7.25;3.30;;;;;;;;;;5030002;28;20535;-89
2021/08/11 08:22:16;;;;;;;9.77;3.50;;;;;;;;;;5030174;28;20120;-89
2021/08/11 08:24:42;;;;;;;4.60;2.60;;;;;;;;;;5030856;28;20389;-91
2021/08/11 08:27:07;;;;;;;4.93;3.38;;;;;;;;;;5020624;28;20108;-91
2021/08/11 08:29:32;;;;;;;8.10;2.83;;;;;;;;;;5022231;28;20026;-90
2021/08/11 08:31:58;;;;;;;6.15;3.40;;;;;;;;;;5026906;28;20034;-90
2021/08/11 08:34:23;;;;;;;7.45;3.53;;;;;;;;;;5054726;28;20028;-91
2021/08/11 08:36:48;;;;;;;6.03;3.35;;;;;;;;;;5032219;28;20025;-91
2021/08/11 08:39:13;;;;;;;7.13;3.28;;;;;;;;;;5019333;28;20393;-92
2021/08/11 08:41:42;;;;;;;5.10;3.03;;;;;;;;;;5020511;28;20025;-92
2021/08/11 08:44:07;;;;;;;9.40;3.33;;;;;;;;;;5012852;28;20014;-91
2021/08/11 08:46:32;;;;;;;6.25;2.95;;;;;;;;;;5012779;28;20060;-91
2021/08/11 08:48:58;;;;;;;7.18;2.90;;;;;;;;;;5017288;28;20022;-92
2021/08/11 08:51:23;;;;;;;8.57;2.60;;;;;;;;;;5032720;28;20112;-90
2021/08/11 08:53:49;;;;;;;4.00;2.40;;;;;;;;;;5033684;28;20027;-91
2021/08/11 08:56:16;;;;;;;6.70;2.78;;;;;;;;;;5032508;28;20083;-91
2021/08/11 08:58:42;;;;;;;5.47;2.67;;;;;;;;;;5032431;28;20108;-92
2021/08/11 09:01:07;;;;;;;8.27;2.83;;;;;;;;;;5018590;28;20005;-91
2021/08/11 09:03:33;;;;;;;6.07;3.00;;;;;;;;;;5021984;28;20129;-90
2021/08/11 09:05:58;;;;;;;8.00;2.38;;;;;;;;;;5026417;28;20017;-91
2021/08/11 09:08:23;;;;;;;4.80;2.13;;;;;;;;;;5021087;28;20495;-91
2021/08/11 09:10:48;;;;;;;4.05;2.45;;;;;;;;;;5032300;28;20024;-91
2021/08/11 09:13:15;;;;;;;4.28;2.17;;;;;;;;;;5018106;28;20017;-91
2021/08/11 09:15:42;;;;;;;6.55;2.42;;;;;;;;;;5031532;28;20018;-91
2021/08/11 09:18:20;;;;;;;5.18;2.40;;;;;;;;;;5032003;28;20025;-90
2021/08/11 09:20:50;;;;;;;5.35;2.30;;;;;;;;;;5024282;28;20381;-91
2021/08/11 09:23:31;;;;;;;7.72;2.42;;;;;;;;;;5012291;28;20018;-90
2021/08/11 09:26:02;;;;;;;5.00;2.50;;;;;;;;;;5045515;28;20480;-90
2021/08/11 09:28:28;;;;;;;3.78;2.40;;;;;;;;;;5015196;28;20026;-91
2021/08/11 09:30:53;;;;;;;5.68;2.33;;;;;;;;;;5032115;28;20404;-90
2021/08/11 09:33:24;;;;;;;5.15;2.65;;;;;;;;;;5018334;28;20021;-90
2021/08/11 09:35:49;;;;;;;9.10;2.97;;;;;;;;;;5005305;28;20021;-90
2021/08/11 09:38:15;;;;;;;5.22;2.88;;;;;;;;;;5018475;28;20084;-90
2021/08/11 09:40:41;;;;;;;7.05;3.08;;;;;;;;;;5016284;28;20017;-91
2021/08/11 09:43:11;;;;;;;5.63;2.58;;;;;;;;;;5031875;28;20416;-90
2021/08/11 09:45:44;;;;;;;7.07;2.13;;;;;;;;;;5017966;28;20552;-90
2021/08/11 09:48:09;;;;;;;4.78;2.40;;;;;;;;;;5031996;28;20017;-91
2021/08/11 09:50:37;;;;;;;3.85;2.20;;;;;;;;;;5017899;28;20077;-90
2021/08/11 09:53:03;;;;;;;8.45;2.58;;;;;;;;;;5031937;28;20544;-90
2021/08/11 09:55:28;;;;;;;4.25;1.90;;;;;;;;;;5017667;28;20088;-90
2021/08/11 09:57:53;;;;;;;4.32;2.15;;;;;;;;;;5018066;28;20079;-90
2021/08/11 10:00:18;;;;;;;5.18;2.33;;;;;;;;;;5031714;28;20025;-90
2021/08/11 10:02:44;;;;;;;4.63;2.20;;;;;;;;;;5029117;28;20034;-90
2021/08/11 10:05:29;;;;;;;5.15;2.20;;;;;;;;;;5022121;28;20418;-90
2021/08/11 10:07:55;;;;;;;4.80;1.95;;;;;;;;;;5031293;28;20010;-90
2021/08/11 10:10:20;;;;;;;5.60;2.55;;;;;;;;;;5021406;28;20354;-91
2021/08/11 10:12:47;;;;;;;4.88;2.17;;;;;;;;;;5012920;28;20417;-90
2021/08/11 10:15:14;;;;;;;7.05;2.45;;;;;;;;;;5011076;28;20022;-89
2021/08/11 10:17:39;;;;;;;7.93;1.90;;;;;;;;;;5016770;28;20033;-90
2021/08/11 10:20:05;;;;;;;6.47;2.15;;;;;;;;;;5011944;28;20105;-90
2021/08/11 10:22:31;;;;;;;3.60;1.52;;;;;;;;;;5012269;28;20021;-92
2021/08/11 10:24:56;;;;;;;3.88;2.15;;;;;;;;;;5012941;28;20018;-91
2021/08/11 10:27:22;;;;;;;3.05;1.95;;;;;;;;;;5027561;28;20097;-91
2021/08/11 10:29:48;;;;;;;4.60;2.30;;;;;;;;;;5015843;28;20114;-91
2021/08/11 10:32:13;;;;;;;4.95;2.10;;;;;;;;;;5029581;28;20037;-91
2021/08/11 10:34:39;;;;;;;5.43;2.47;;;;;;;;;;5015719;28;20489;-91
2021/08/11 10:37:05;;;;;;;6.75;2.60;;;;;;;;;;5029304;28;20480;-90
2021/08/11 10:39:30;;;;;;;3.45;1.90;;;;;;;;;;5024174;28;20037;-91
2021/08/11 10:42:00;;;;;;;32.67;3.50;;;;;;;;;;5023088;28;20024;-92
2021/08/11 10:44:26;;;;;;;3.67;1.70;;;;;;;;;;5021657;28;20022;-91
2021/08/11 10:46:54;;;;;;;4.93;1.90;;;;;;;;;;5028537;28;20042;-91
2021/08/11 10:49:19;;;;;;;5.60;1.67;;;;;;;;;;5021171;28;20109;-91
2021/08/11 10:51:46;;;;;;;3.97;1.88;;;;;;;;;;5035179;28;20045;-91
2021/08/11 10:54:11;;;;;;;3.30;2.05;;;;;;;;;;5021228;28;20489;-91
2021/08/11 10:56:44;;;;;;;6.30;2.33;;;;;;;;;;5030885;28;20026;-92
2021/08/11 10:59:21;;;;;;;4.93;1.83;;;;;;;;;;5032332;28;20018;-91
2021/08/11 11:01:46;;;;;;;4.85;2.33;;;;;;;;;;5058273;28;20024;-91
2021/08/11 11:04:31;;;;;;;4.95;2.47;;;;;;;;;;5020837;28;20014;-92
2021/08/11 11:07:18;;;;;;;6.75;2.20;;;;;;;;;;5015121;28;20014;-91
2021/08/11 11:09:44;;;;;;;4.80;1.83;;;;;;;;;;5015004;28;20022;-92
2021/08/11 11:12:15;;;;;;;3.85;1.92;;;;;;;;;;5018835;28;20466;-91
2021/08/11 11:14:45;;;;;;;3.75;1.90;;;;;;;;;;5028656;28;20021;-91
2021/08/11 11:17:11;;;;;;;4.22;2.15;;;;;;;;;;5016051;28;20026;-92
2021/08/11 11:19:55;;;;;;;6.10;3.13;;;;;;;;;;5014751;28;20032;-91
2021/08/11 11:22:46;;;;;;;8.93;1.98;;;;;;;;;;5047929;28;20024;-91
2021/08/11 11:25:15;;;;;;;5.30;2.15;;;;;;;;;;5016977;28;20037;-91
2021/08/11 11:27:41;;;;;;;4.55;2.30;;;;;;;;;;5014556;28;20121;-90
2021/08/11 11:30:07;;;;;;;4.82;2.30;;;;;;;;;;5029633;28;20437;-91
2021/08/11 11:32:32;;;;;;;8.35;2.50;;;;;;;;;;5024472;28;20029;-90
2021/08/11 11:35:16;;;;;;;9.27;2.33;;;;;;;;;;5027505;28;20078;-90
2021/08/11 11:37:42;;;;;;;5.85;2.42;;;;;;;;;;5026188;28;20106;-91
2021/08/11 11:40:07;;;;;;;4.82;2.35;;;;;;;;;;5028038;28;20029;-91
2021/08/11 11:42:33;;;;;;;5.25;2.60;;;;;;;;;;5028311;28;20013;-91
2021/08/11 11:44:58;;;;;;;3.97;2.35;;;;;;;;;;5016530;28;20148;-91
2021/08/11 11:47:43;;;;;;;3.97;2.30;;;;;;;;;;5061519;28;20025;-90
2021/08/11 11:52:49;;;;;;;5.88;2.45;;;;;;;;;;5017826;28;20060;-91
2021/08/11 11:55:15;;;;;;;6.72;2.42;;;;;;;;;;5026323;28;20025;-90
2021/08/11 11:57:40;;;;;;;7.05;3.28;;;;;;;;;;5021040;28;20030;-92
2021/08/11 12:00:06;;;;;;;5.95;2.47;;;;;;;;;;5013216;28;20079;-92
2021/08/11 12:02:32;;;;;;;4.78;2.40;;;;;;;;;;5014613;28;20470;-91
2021/08/11 12:05:00;;;;;;;7.93;2.65;;;;;;;;;;5014055;28;20026;-91
2021/08/11 12:07:29;;;;;;;4.00;2.33;;;;;;;;;;5013584;28;20030;-90
2021/08/11 12:09:55;;;;;;;5.38;2.50;;;;;;;;;;5012815;28;20079;-91
2021/08/11 12:12:20;;;;;;;5.55;2.35;;;;;;;;;;5017293;28;20139;-90
2021/08/11 12:14:45;;;;;;;5.30;2.33;;;;;;;;;;5028197;28;20079;-91
2021/08/11 12:17:30;;;;;;;6.10;2.60;;;;;;;;;;5020494;28;20112;-90
2021/08/11 12:19:55;;;;;;;6.10;2.97;;;;;;;;;;5028458;28;20376;-91
2021/08/11 12:22:34;;;;;;;4.20;2.47;;;;;;;;;;5020551;28;20017;-90
2021/08/11 12:24:59;;;;;;;4.60;2.38;;;;;;;;;;5032764;28;20021;-91
2021/08/11 12:27:25;;;;;;;5.53;2.83;;;;;;;;;;5025630;28;20108;-90
2021/08/11 12:30:10;;;;;;;5.97;2.33;;;;;;;;;;5028056;28;20048;-90
2021/08/11 12:32:35;;;;;;;5.15;2.17;;;;;;;;;;5028357;28;20033;-90
2021/08/11 12:35:00;;;;;;;6.32;2.50;;;;;;;;;;5025969;28;20025;-90
2021/08/11 12:37:25;;;;;;;5.03;3.00;;;;;;;;;;5032489;28;20025;-90
2021/08/11 12:39:51;;;;;;;7.38;2.70;;;;;;;;;;5026298;28;20021;-90
2021/08/11 12:42:16;;;;;;;4.57;2.20;;;;;;;;;;5025297;28;20027;-90
2021/08/11 12:44:41;;;;;;;4.70;2.20;;;;;;;;;;5023672;28;20030;-90
2021/08/11 12:47:06;;;;;;;3.47;2.15;;;;;;;;;;5013923;28;20447;-90
2021/08/11 12:49:38;;;;;;;5.90;2.30;;;;;;;;;;5028388;28;20063;-90
2021/08/11 12:52:04;;;;;;;6.22;2.53;;;;;;;;;;5018418;28;20052;-90
2021/08/11 12:54:29;;;;;;;5.07;2.10;;;;;;;;;;5019642;28;20125;-90
2021/08/11 12:56:58;;;;;;;7.35;2.28;;;;;;;;;;5021419;28;20026;-90
2021/08/11 12:59:43;;;;;;;5.97;2.05;;;;;;;;;;5016744;28;20021;-90
2021/08/11 13:02:26;;;;;;;3.72;1.98;;;;;;;;;;5032281;28;20408;-90
2021/08/11 13:04:51;;;;;;;7.25;2.42;;;;;;;;;;5016659;28;20017;-90
2021/08/11 13:07:17;;;;;;;4.97;2.47;;;;;;;;;;5012451;28;20030;-90
2021/08/11 13:09:42;;;;;;;4.95;2.45;;;;;;;;;;5017557;28;20052;-90
2021/08/11 13:12:08;;;;;;;6.50;2.60;;;;;;;;;;5023412;28;20107;-90
2021/08/11 13:14:49;;;;;;;5.78;2.38;;;;;;;;;;5017680;28;20025;-89
2021/08/11 13:17:19;;;;;;;4.95;2.40;;;;;;;;;;5033073;28;20026;-90
2021/08/11 13:19:45;;;;;;;3.53;2.03;;;;;;;;;;5012045;28;20478;-91
2021/08/11 13:22:19;;;;;;;9.27;2.65;;;;;;;;;;5012252;28;20025;-89
2021/08/11 13:24:45;;;;;;;42.83;3.15;;;;;;;;;;5025358;28;20022;-90
2021/08/11 13:27:10;;;;;;;6.32;2.00;;;;;;;;;;5014438;28;20032;-90
2021/08/11 13:29:35;;;;;;;7.43;2.65;;;;;;;;;;5011855;28;20101;-89
2021/08/11 13:32:01;;;;;;;4.28;2.13;;;;;;;;;;5018706;28;20461;-90
2021/08/11 13:34:26;;;;;;;4.18;2.10;;;;;;;;;;5012185;28;20018;-89
2021/08/11 13:36:54;;;;;;;5.38;2.20;;;;;;;;;;5027006;28;20029;-90
2021/08/11 13:39:19;;;;;;;5.38;1.90;;;;;;;;;;5033287;28;20044;-89
2021/08/11 13:41:45;;;;;;;6.20;2.30;;;;;;;;;;5029211;28;20049;-89
2021/08/11 13:44:13;;;;;;;3.78;2.10;;;;;;;;;;5054063;28;20038;-89
2021/08/11 13:46:39;;;;;;;10.63;2.78;;;;;;;;;;5019501;28;20026;-90
2021/08/11 13:49:05;;;;;;;4.63;2.03;;;;;;;;;;5029157;28;20021;-90
2021/08/11 13:51:30;;;;;;;6.75;2.78;;;;;;;;;;5031733;28;20033;-89
2021/08/11 13:53:55;;;;;;;5.85;2.60;;;;;;;;;;5021500;28;20358;-89
2021/08/11 13:56:22;;;;;;;6.28;2.70;;;;;;;;;;5019283;28;20357;-89
2021/08/11 13:58:47;;;;;;;11.10;2.80;;;;;;;;;;5023387;28;20333;-90
2021/08/11 14:01:13;;;;;;;4.53;2.38;;;;;;;;;;5013927;28;20018;-90
2021/08/11 14:03:38;;;;;;;4.22;2.33;;;;;;;;;;5015815;28;20030;-89
2021/08/11 14:06:03;;;;;;;5.00;2.50;;;;;;;;;;5032747;28;20364;-89
2021/08/11 14:08:28;;;;;;;4.50;2.17;;;;;;;;;;5035022;28;20053;-89
2021/08/11 14:10:54;;;;;;;5.97;2.60;;;;;;;;;;5033511;28;20025;-90
2021/08/11 14:13:19;;;;;;;8.18;3.05;;;;;;;;;;5021167;28;20095;-90
2021/08/11 14:15:44;;;;;;;4.95;2.47;;;;;;;;;;5025068;28;20017;-88
2021/08/11 14:18:09;;;;;;;4.97;2.67;;;;;;;;;;5031708;28;20025;-89
2021/08/11 14:20:34;;;;;;;6.22;2.88;;;;;;;;;;5034665;28;20040;-89
2021/08/11 14:23:00;;;;;;;6.70;2.60;;;;;;;;;;5026716;28;20029;-89
2021/08/11 14:25:25;;;;;;;3.83;2.55;;;;;;;;;;5021063;28;20029;-89
2021/08/11 14:27:50;;;;;;;5.32;2.90;;;;;;;;;;5034273;28;20469;-88
2021/08/11 14:30:15;;;;;;;5.05;2.72;;;;;;;;;;5018327;28;20116;-89
2021/08/11 14:32:45;;;;;;;5.03;2.33;;;;;;;;;;5024063;28;20056;-88